Time;durP1;ratioP1;P1;durP2;ratioP2;P2;SDS_P1;SDS_P2;PMS_P1;PMS_P2;Temp;Humidity;BMP_temperature;BMP_pressure;BME280_temperature;BME280_humidity;BME280_pressure;Samples;Min_cycle;Max_cycle;Signal;HPM_P1;HPM_P2
2023/10/21 00:00:01;;;;;;;3.25;0.70;;;;;;;22.02;60.63;97110.34;2074598;28;20736;-66
2023/10/21 00:01:05;;;;;;;3.08;0.52;;;;;;;22.03;60.70;97106.56;2074729;28;20053;-67
2023/10/21 00:02:06;;;;;;;4.70;0.70;;;;;;;21.99;60.83;97105.47;2074938;28;20068;-67
2023/10/21 00:03:07;;;;;;;3.63;0.90;;;;;;;22.00;60.75;97099.00;2076160;28;20515;-67
2023/10/21 00:04:08;;;;;;;0.82;0.40;;;;;;;21.97;60.68;97102.22;2080490;28;20052;-67
2023/10/21 00:05:10;;;;;;;1.80;0.55;;;;;;;21.97;60.97;97102.22;2076332;28;20152;-68
2023/10/21 00:06:11;;;;;;;1.52;0.60;;;;;;;21.99;61.18;97100.06;2077894;28;20064;-67
2023/10/21 00:07:13;;;;;;;1.02;0.40;;;;;;;21.98;60.87;97103.03;2072774;28;20061;-67
2023/10/21 00:08:14;;;;;;;2.83;0.80;;;;;;;21.97;61.01;97101.41;2074499;28;20049;-67
2023/10/21 00:09:17;;;;;;;3.75;0.43;;;;;;;21.98;60.67;97101.16;2076789;28;25230;-67
2023/10/21 00:10:18;;;;;;;1.38;0.55;;;;;;;21.97;60.76;97107.63;2073412;28;20053;-67
2023/10/21 00:11:20;;;;;;;3.95;0.77;;;;;;;21.98;60.91;97106.56;2072371;28;20045;-67
2023/10/21 00:12:20;;;;;;;0.88;0.40;;;;;;;21.99;60.54;97108.19;2070040;28;20063;-67
2023/10/21 00:13:22;;;;;;;1.65;0.68;;;;;;;22.01;60.66;97105.22;2075560;28;20056;-67
2023/10/21 00:14:23;;;;;;;1.45;0.32;;;;;;;22.00;60.74;97100.88;2075599;28;20396;-67
2023/10/21 00:15:25;;;;;;;6.18;0.88;;;;;;;21.98;60.71;97094.94;2074436;28;20051;-67
2023/10/21 00:16:26;;;;;;;2.38;0.50;;;;;;;21.98;60.72;97095.75;2072919;28;20060;-67
2023/10/21 00:17:29;;;;;;;1.70;0.60;;;;;;;21.98;60.50;97101.16;2075532;28;20054;-67
2023/10/21 00:18:30;;;;;;;4.53;0.65;;;;;;;21.98;60.88;97094.94;2076434;28;20045;-67
2023/10/21 00:19:31;;;;;;;2.80;0.57;;;;;;;21.98;60.63;97093.06;2075664;28;20397;-68
2023/10/21 00:20:32;;;;;;;4.45;0.70;;;;;;;22.01;60.57;97097.94;2072734;28;20057;-67
2023/10/21 00:21:34;;;;;;;3.15;0.50;;;;;;;21.99;60.68;97099.28;2075415;28;20050;-67
2023/10/21 00:22:35;;;;;;;2.05;0.70;;;;;;;21.99;60.73;97100.06;2074664;28;20068;-67
2023/10/21 00:23:37;;;;;;;1.60;0.90;;;;;;;21.99;60.45;97089.28;2078353;28;20085;-67
2023/10/21 00:24:39;;;;;;;2.20;0.55;;;;;;;22.00;60.45;97090.91;2072878;28;20056;-67
2023/10/21 00:25:41;;;;;;;2.97;0.60;;;;;;;21.99;60.62;97091.97;2077912;28;20037;-67
2023/10/21 00:26:47;;;;;;;1.42;0.40;;;;;;;21.98;60.48;97081.44;2071380;28;20420;-68
2023/10/21 00:27:49;;;;;;;2.28;0.70;;;;;;;21.99;60.51;97088.47;2076477;28;20079;-67
2023/10/21 00:28:50;;;;;;;1.45;0.65;;;;;;;21.97;60.44;97091.41;2073526;28;20059;-67
2023/10/21 00:29:52;;;;;;;2.92;0.88;;;;;;;21.96;60.72;97092.50;2072433;28;20055;-68
2023/10/21 00:30:53;;;;;;;4.78;0.70;;;;;;;21.98;60.59;97095.75;2076059;28;20080;-68
2023/10/21 00:31:55;;;;;;;7.55;1.15;;;;;;;21.97;60.68;97094.13;2071562;28;21350;-67
2023/10/21 00:32:56;;;;;;;4.75;0.65;;;;;;;21.96;60.70;97100.59;2076006;28;20053;-67
2023/10/21 00:33:57;;;;;;;3.88;0.75;;;;;;;21.96;60.56;97097.91;2075568;28;20053;-67
2023/10/21 00:34:58;;;;;;;2.03;0.70;;;;;;;21.97;60.61;97096.81;2077041;28;21548;-67
2023/10/21 00:36:00;;;;;;;1.83;0.65;;;;;;;21.96;60.46;97091.69;2073777;28;20049;-67
2023/10/21 00:37:01;;;;;;;1.95;0.80;;;;;;;21.96;60.77;97091.69;2073355;28;20053;-68
2023/10/21 00:38:03;;;;;;;2.97;0.75;;;;;;;21.97;60.43;97094.13;2075941;28;20683;-68
2023/10/21 00:39:10;;;;;;;0.93;0.32;;;;;;;21.96;60.43;97089.81;2079383;28;20055;-67
2023/10/21 00:40:13;;;;;;;3.00;0.68;;;;;;;21.96;60.52;97092.50;2074823;28;20077;-67
2023/10/21 00:41:14;;;;;;;5.13;0.70;;;;;;;21.96;60.58;97095.22;2077673;28;20475;-67
2023/10/21 00:42:16;;;;;;;9.35;0.85;;;;;;;21.96;60.48;97095.22;2076394;28;20056;-67
2023/10/21 00:43:33;;;;;;;4.47;0.77;;;;;;;21.92;60.49;97093.28;2079195;28;20535;-66
2023/10/21 00:44:35;;;;;;;4.28;1.08;;;;;;;21.94;60.58;97094.66;2077385;28;20546;-67
2023/10/21 00:45:36;;;;;;;2.72;0.80;;;;;;;21.94;60.42;97091.94;2079145;28;20069;-67
2023/10/21 00:46:37;;;;;;;4.70;1.40;;;;;;;21.94;60.41;97094.66;2077622;28;20045;-67
2023/10/21 00:47:39;;;;;;;;;;;;;;;21.84;60.72;97095.44;2080641;28;20210;-67
2023/10/21 00:48:40;;;;;;;3.13;0.60;;;;;;;21.86;60.97;97097.84;2084318;28;19921;-67
2023/10/21 00:49:42;;;;;;;2.88;0.70;;;;;;;21.90;60.59;97096.25;2079667;28;20049;-67
2023/10/21 00:50:43;;;;;;;3.53;0.68;;;;;;;21.90;60.72;97100.81;2078755;28;20048;-68
2023/10/21 00:51:48;;;;;;;3.72;0.95;;;;;;;21.94;60.43;97101.94;2079624;28;20048;-67
2023/10/21 00:52:49;;;;;;;5.43;0.77;;;;;;;21.92;60.49;97102.19;2077056;28;20056;-67
2023/10/21 00:53:51;;;;;;;5.88;0.85;;;;;;;21.93;60.26;97103.03;2079394;28;20117;-68
2023/10/21 00:54:54;;;;;;;2.60;0.55;;;;;;;21.93;60.61;97111.94;2074316;28;20435;-67
2023/10/21 00:55:57;;;;;;;4.45;1.10;;;;;;;21.94;60.37;97116.25;2076791;28;20044;-66
2023/10/21 00:56:58;;;;;;;1.25;0.40;;;;;;;21.91;60.59;97119.47;2075304;28;20045;-67
2023/10/21 00:58:00;;;;;;;2.45;0.70;;;;;;;21.93;60.58;97119.22;2078508;28;20538;-67
2023/10/21 00:59:01;;;;;;;2.92;1.00;;;;;;;21.90;60.59;97117.84;2080650;28;20512;-67
2023/10/21 01:00:10;;;;;;;2.38;0.50;;;;;;;21.92;60.42;97115.69;2080669;28;20044;-67
2023/10/21 01:01:13;;;;;;;3.88;1.20;;;;;;;21.90;60.46;97122.41;2077813;28;20060;-67
2023/10/21 01:02:15;;;;;;;3.10;1.02;;;;;;;21.90;60.52;97127.81;2079028;28;20056;-67
2023/10/21 01:03:15;;;;;;;1.85;0.70;;;;;;;21.91;60.45;97130.25;2077527;28;20882;-67
2023/10/21 01:04:19;;;;;;;3.08;0.82;;;;;;;21.92;60.36;97131.88;2080404;28;20055;-67
2023/10/21 01:05:20;;;;;;;2.35;0.63;;;;;;;21.91;60.50;97135.66;2079556;28;20954;-67
2023/10/21 01:06:22;;;;;;;5.72;1.33;;;;;;;21.93;60.47;97141.63;2076060;28;20814;-67
2023/10/21 01:07:23;;;;;;;2.80;0.80;;;;;;;21.94;60.39;97134.34;2073043;28;20053;-67
2023/10/21 01:08:24;;;;;;;1.83;0.32;;;;;;;21.90;60.43;97141.31;2077194;28;20132;-67
2023/10/21 01:09:27;;;;;;;2.80;0.50;;;;;;;21.91;60.63;97140.25;2080231;28;20411;-67
2023/10/21 01:10:28;;;;;;;4.03;0.85;;;;;;;21.88;60.50;97146.19;2078233;28;20098;-67
2023/10/21 01:11:31;;;;;;;2.60;1.02;;;;;;;21.89;60.39;97145.91;2078639;28;20053;-67
2023/10/21 01:12:32;;;;;;;0.57;0.45;;;;;;;21.90;60.49;97139.44;2075453;28;20136;-67
2023/10/21 01:13:34;;;;;;;3.28;0.60;;;;;;;21.87;60.54;97137.28;2079411;28;20057;-67
2023/10/21 01:14:35;;;;;;;3.22;0.60;;;;;;;21.86;60.49;97144.53;2075067;28;20045;-67
2023/10/21 01:15:36;;;;;;;0.85;0.35;;;;;;;21.87;60.66;97134.56;2075652;28;21407;-67
2023/10/21 01:16:38;;;;;;;3.33;0.60;;;;;;;21.89;60.55;97143.19;2079994;28;20063;-67
2023/10/21 01:17:39;;;;;;;4.03;0.57;;;;;;;21.90;60.55;97134.06;2076008;28;20049;-67
2023/10/21 01:18:41;;;;;;;2.45;0.50;;;;;;;21.90;60.42;97136.75;2080482;28;20056;-67
2023/10/21 01:19:42;;;;;;;2.88;0.65;;;;;;;21.89;60.63;97129.72;2076756;28;20057;-67
2023/10/21 01:20:43;;;;;;;1.67;0.85;;;;;;;21.86;60.93;97135.63;2069147;28;20049;-67
2023/10/21 01:21:45;;;;;;;2.95;0.50;;;;;;;21.89;60.72;97135.09;2070613;28;20061;-67
2023/10/21 01:22:46;;;;;;;2.13;0.88;;;;;;;21.86;60.78;97127.53;2072872;28;20048;-67
2023/10/21 01:23:49;;;;;;;2.58;0.50;;;;;;;21.84;60.65;97133.22;2076710;28;20528;-67
2023/10/21 01:24:51;;;;;;;2.38;0.68;;;;;;;21.86;60.76;97130.22;2073844;28;20062;-67
2023/10/21 01:25:53;;;;;;;3.30;0.98;;;;;;;21.87;60.64;97123.78;2073877;28;20045;-67
2023/10/21 01:26:54;;;;;;;3.00;0.90;;;;;;;21.89;60.83;97137.81;2076706;28;20122;-67
2023/10/21 01:27:56;;;;;;;5.28;0.75;;;;;;;21.92;60.42;97133.78;2076157;28;20053;-67
2023/10/21 01:28:57;;;;;;;3.90;0.80;;;;;;;21.91;60.55;97135.66;2077956;28;20067;-66
2023/10/21 01:29:58;;;;;;;2.83;0.60;;;;;;;21.92;60.67;97139.97;2074563;28;20115;-67
2023/10/21 01:30:59;;;;;;;2.42;1.30;;;;;;;21.91;60.29;97137.56;2072934;28;20599;-67
2023/10/21 01:32:01;;;;;;;7.88;1.25;;;;;;;21.90;60.42;97139.44;2080021;28;20052;-67
2023/10/21 01:33:02;;;;;;;4.80;1.30;;;;;;;21.88;60.35;97138.88;2067791;28;20053;-67
2023/10/21 01:34:04;;;;;;;2.50;0.60;;;;;;;21.92;60.42;97142.69;2078200;28;20049;-67
2023/10/21 01:35:06;;;;;;;2.58;0.80;;;;;;;21.91;60.18;97141.06;2073511;28;20057;-67
2023/10/21 01:36:08;;;;;;;3.85;0.82;;;;;;;21.92;60.29;97144.56;2080372;28;20145;-67
2023/10/21 01:37:09;;;;;;;3.67;0.80;;;;;;;21.88;60.45;97138.88;2074249;28;20045;-67
2023/10/21 01:38:10;;;;;;;2.78;1.05;;;;;;;21.89;60.26;97140.50;2076306;28;20059;-67
2023/10/21 01:39:14;;;;;;;4.93;0.80;;;;;;;21.87;60.10;97137.28;2078370;28;20222;-67
2023/10/21 01:40:15;;;;;;;4.95;0.63;;;;;;;21.85;60.50;97144.81;2077741;28;20049;-67
2023/10/21 01:41:17;;;;;;;1.52;0.45;;;;;;;21.85;60.41;97142.91;2075904;28;20053;-68
2023/10/21 01:42:18;;;;;;;8.02;1.23;;;;;;;21.88;60.37;97149.69;2077856;28;20057;-67
2023/10/21 01:43:19;;;;;;;2.60;1.08;;;;;;;21.86;60.30;97144.53;2077670;28;20049;-67
2023/10/21 01:44:20;;;;;;;4.38;0.80;;;;;;;21.86;60.24;97146.44;2078243;28;20050;-67
2023/10/21 01:45:23;;;;;;;1.60;0.70;;;;;;;21.84;60.35;97145.88;2076161;28;20148;-67
2023/10/21 01:46:25;;;;;;;4.78;0.73;;;;;;;21.85;60.33;97153.72;2076763;28;20508;-67
2023/10/21 01:47:26;;;;;;;2.38;0.60;;;;;;;21.88;60.04;97146.19;2074145;28;20630;-67
2023/10/21 01:48:28;;;;;;;3.67;1.00;;;;;;;21.85;60.24;97148.31;2074888;28;20073;-67
2023/10/21 01:49:29;;;;;;;4.38;0.80;;;;;;;21.84;60.39;97145.88;2076572;28;20049;-67
2023/10/21 01:50:31;;;;;;;2.50;0.52;;;;;;;21.85;60.31;97147.50;2073463;28;20049;-67
2023/10/21 01:51:32;;;;;;;2.15;0.68;;;;;;;21.87;59.95;97148.06;2070943;28;20049;-67
2023/10/21 01:52:34;;;;;;;1.52;0.70;;;;;;;21.85;60.23;97148.31;2073731;28;20531;-67
2023/10/21 01:53:36;;;;;;;2.58;0.50;;;;;;;21.85;60.35;97144.81;2073910;28;20061;-68
2023/10/21 01:54:39;;;;;;;4.35;1.40;;;;;;;21.84;60.26;97143.16;2074490;28;20144;-67
2023/10/21 01:55:40;;;;;;;0.93;0.52;;;;;;;21.86;60.37;97151.81;2073926;28;20071;-67
2023/10/21 01:56:42;;;;;;;4.85;1.30;;;;;;;21.84;60.19;97160.19;2073688;28;20523;-67
2023/10/21 01:57:42;;;;;;;1.50;0.40;;;;;;;21.85;60.19;97163.72;2075512;28;20522;-68
2023/10/21 01:58:44;;;;;;;2.10;0.60;;;;;;;21.85;60.04;97158.31;2079856;28;20088;-67
2023/10/21 01:59:45;;;;;;;4.53;0.93;;;;;;;21.85;60.49;97158.31;2076283;28;20106;-67
2023/10/21 02:00:47;;;;;;;2.38;0.75;;;;;;;21.85;60.31;97152.91;2075998;28;20142;-67
2023/10/21 02:01:48;;;;;;;3.72;0.50;;;;;;;21.86;60.32;97165.31;2071657;28;20045;-68
2023/10/21 02:02:51;;;;;;;1.70;0.80;;;;;;;21.85;60.10;97156.41;2074450;28;20053;-67
2023/10/21 02:03:53;;;;;;;2.60;0.90;;;;;;;21.86;60.14;97151.81;2078627;28;20136;-67
2023/10/21 02:04:54;;;;;;;3.25;1.13;;;;;;;21.84;60.28;97152.09;2073650;28;20057;-67
2023/10/21 02:05:55;;;;;;;1.98;0.40;;;;;;;21.84;60.12;97157.50;2072413;28;20331;-67
2023/10/21 02:06:56;;;;;;;2.15;0.80;;;;;;;21.86;59.90;97157.22;2074549;28;21211;-67
2023/10/21 02:07:57;;;;;;;3.00;1.08;;;;;;;21.85;60.30;97153.72;2076824;28;20608;-67
2023/10/21 02:08:59;;;;;;;2.70;0.60;;;;;;;21.85;60.20;97152.91;2073470;28;20077;-67
2023/10/21 02:10:02;;;;;;;3.85;1.20;;;;;;;21.85;60.22;97156.41;2076484;28;20060;-66
2023/10/21 02:11:04;;;;;;;8.68;1.10;;;;;;;21.84;60.32;97157.50;2076023;28;20048;-67
2023/10/21 02:12:05;;;;;;;3.88;1.25;;;;;;;21.84;60.07;97157.50;2073797;28;20057;-67
2023/10/21 02:13:07;;;;;;;2.45;0.75;;;;;;;21.83;60.05;97160.44;2077452;28;20435;-67
2023/10/21 02:14:08;;;;;;;4.47;0.60;;;;;;;21.83;60.25;97161.25;2075762;28;20049;-67
2023/10/21 02:15:14;;;;;;;3.53;0.55;;;;;;;21.83;60.11;97161.25;2075050;28;20045;-67
2023/10/21 02:16:15;;;;;;;2.58;0.70;;;;;;;21.81;60.31;97162.59;2077637;28;20076;-67
2023/10/21 02:17:17;;;;;;;3.53;0.70;;;;;;;21.81;60.21;97159.88;2076743;28;20592;-67
2023/10/21 02:18:18;;;;;;;2.63;0.80;;;;;;;21.79;60.19;97160.16;2075347;28;20053;-67
2023/10/21 02:19:19;;;;;;;1.65;0.45;;;;;;;21.79;60.29;97160.16;2077797;28;20076;-67
2023/10/21 02:20:21;;;;;;;2.47;0.60;;;;;;;21.81;60.15;97162.59;2072009;28;21456;-67
2023/10/21 02:21:22;;;;;;;4.50;0.85;;;;;;;21.80;60.13;97161.78;2074745;28;20561;-67
2023/10/21 02:22:24;;;;;;;7.88;1.20;;;;;;;21.80;60.12;97161.78;2070925;28;20061;-66
2023/10/21 02:23:25;;;;;;;2.10;0.57;;;;;;;21.80;60.23;97163.66;2077508;28;20048;-67
2023/10/21 02:24:27;;;;;;;2.53;0.98;;;;;;;21.77;60.10;97161.50;2072160;28;20567;-67
2023/10/21 02:25:31;;;;;;;5.28;0.95;;;;;;;21.79;60.07;97162.06;2075577;28;20427;-67
2023/10/21 02:26:32;;;;;;;3.72;1.38;;;;;;;21.79;60.30;97162.84;2072613;28;20041;-67
2023/10/21 02:27:33;;;;;;;3.97;0.68;;;;;;;21.78;60.23;97166.63;2072361;28;20078;-67
2023/10/21 02:28:35;;;;;;;4.82;1.30;;;;;;;21.78;60.17;97163.91;2078826;28;20046;-67
2023/10/21 02:29:37;;;;;;;9.32;1.20;;;;;;;21.77;60.32;97167.69;2073825;28;20108;-67
2023/10/21 02:30:39;;;;;;;3.60;0.75;;;;;;;21.76;60.20;97165.28;2077993;28;20141;-67
2023/10/21 02:31:40;;;;;;;4.03;0.82;;;;;;;21.77;60.21;97162.28;2075993;28;20130;-67
2023/10/21 02:32:44;;;;;;;3.80;1.33;;;;;;;21.76;60.20;97159.88;2075334;28;20052;-67
2023/10/21 02:33:45;;;;;;;6.28;1.00;;;;;;;21.76;60.00;97165.28;2075799;28;20152;-67
2023/10/21 02:34:47;;;;;;;5.50;1.30;;;;;;;21.77;60.22;97158.78;2076181;28;20194;-67
2023/10/21 02:35:51;;;;;;;6.88;1.17;;;;;;;21.77;59.99;97159.59;2070681;28;20516;-67
2023/10/21 02:36:53;;;;;;;4.95;1.48;;;;;;;21.73;60.02;97157.66;2074837;28;20573;-68
2023/10/21 02:37:54;;;;;;;2.78;0.63;;;;;;;21.71;60.14;97159.84;2073730;28;20057;-67
2023/10/21 02:38:56;;;;;;;5.93;0.85;;;;;;;21.73;60.20;97154.97;2073556;28;20196;-68
2023/10/21 02:39:57;;;;;;;3.58;0.65;;;;;;;21.72;60.16;97164.16;2071369;28;20076;-67
2023/10/21 02:41:00;;;;;;;3.90;0.80;;;;;;;;;;2074509;28;20154;-67
2023/10/21 02:42:01;;;;;;;5.20;1.35;;;;;;;21.72;60.32;97164.16;2069748;28;20053;-67
2023/10/21 02:43:03;;;;;;;4.95;0.95;;;;;;;21.71;60.27;97160.66;2078539;28;20416;-67
2023/10/21 02:44:04;;;;;;;4.25;1.23;;;;;;;21.72;60.35;97164.16;2074335;28;20057;-67
2023/10/21 02:45:06;;;;;;;5.13;1.17;;;;;;;21.74;60.12;97170.09;2074998;28;20456;-66
2023/10/21 02:46:09;;;;;;;5.43;1.17;;;;;;;21.71;60.12;97163.34;2073200;28;20045;-67
2023/10/21 02:47:10;;;;;;;1.40;0.70;;;;;;;21.73;60.07;97168.47;2073904;28;20654;-67
2023/10/21 02:48:11;;;;;;;1.85;0.90;;;;;;;21.73;60.30;97171.16;2073415;28;20680;-67
2023/10/21 02:49:12;;;;;;;;;;;;;;;21.61;60.42;97164.06;2075361;28;20073;-67
2023/10/21 02:50:13;;;;;;;3.53;1.23;;;;;;;21.62;60.45;97173.81;2071376;28;20485;-67
2023/10/21 02:51:17;;;;;;;2.33;0.70;;;;;;;21.66;60.76;97176.78;2075901;28;20049;-67
2023/10/21 02:52:18;;;;;;;1.05;0.70;;;;;;;21.68;60.30;97174.66;2072659;28;20117;-67
2023/10/21 02:53:20;;;;;;;5.43;1.75;;;;;;;21.72;60.37;97177.66;2071845;28;20061;-67
2023/10/21 02:54:21;;;;;;;5.03;1.08;;;;;;;21.72;60.23;97180.34;2074172;28;20053;-68
2023/10/21 02:55:23;;;;;;;3.47;0.68;;;;;;;21.76;60.19;97173.38;2073514;28;20785;-67
2023/10/21 02:56:25;;;;;;;4.18;0.82;;;;;;;21.73;60.06;97179.25;2073834;28;20065;-68
2023/10/21 02:57:26;;;;;;;3.95;1.00;;;;;;;21.74;59.95;97176.31;2076554;28;24605;-67
2023/10/21 02:58:28;;;;;;;5.05;0.70;;;;;;;21.76;60.03;97176.06;2073943;28;20077;-67
2023/10/21 02:59:30;;;;;;;4.80;0.85;;;;;;;21.76;59.97;97179.56;2073438;28;20046;-67
2023/10/21 03:00:32;;;;;;;1.98;0.60;;;;;;;21.71;60.39;97176.03;2070328;28;20114;-67
2023/10/21 03:01:33;;;;;;;1.85;0.77;;;;;;;21.71;60.22;97173.31;2072941;28;20971;-67
2023/10/21 03:02:35;;;;;;;2.72;0.90;;;;;;;21.71;60.29;97176.03;2079596;28;20046;-67
2023/10/21 03:03:36;;;;;;;4.82;0.88;;;;;;;21.72;60.05;97183.03;2079172;28;20053;-67
2023/10/21 03:04:38;;;;;;;3.92;1.42;;;;;;;21.73;60.23;97184.66;2074680;28;20060;-67
2023/10/21 03:05:39;;;;;;;6.50;0.93;;;;;;;21.72;60.35;97180.34;2073366;28;20056;-67
2023/10/21 03:06:41;;;;;;;3.33;1.30;;;;;;;21.73;60.13;97182.78;2073455;28;20049;-68
2023/10/21 03:07:43;;;;;;;1.42;0.90;;;;;;;21.71;60.20;97184.13;2072734;28;20048;-67
2023/10/21 03:08:45;;;;;;;6.45;1.17;;;;;;;21.73;60.15;97176.56;2076868;28;20057;-67
2023/10/21 03:09:46;;;;;;;2.72;0.75;;;;;;;21.74;60.30;97186.31;2077384;28;20148;-67
2023/10/21 03:10:48;;;;;;;2.88;0.90;;;;;;;21.72;60.19;97191.13;2075318;28;20064;-67
2023/10/21 03:11:51;;;;;;;2.92;1.08;;;;;;;21.74;60.09;97186.31;2075735;28;20124;-67
2023/10/21 03:12:52;;;;;;;6.28;1.02;;;;;;;21.74;60.06;97189.00;2069689;28;20506;-67
2023/10/21 03:13:53;;;;;;;3.63;0.75;;;;;;;21.74;60.10;97192.50;2074679;28;20063;-67
2023/10/21 03:14:56;;;;;;;5.68;0.98;;;;;;;21.75;60.17;97194.13;2074070;28;20049;-67
2023/10/21 03:15:57;;;;;;;2.25;0.93;;;;;;;21.71;60.18;97186.81;2075010;28;20056;-67
2023/10/21 03:16:59;;;;;;;1.55;0.68;;;;;;;21.69;60.09;97187.06;2074055;28;20936;-67
2023/10/21 03:18:00;;;;;;;3.90;0.63;;;;;;;21.71;60.21;97192.22;2073309;28;20060;-65
2023/10/21 03:19:04;;;;;;;5.90;0.95;;;;;;;21.73;59.97;97192.75;2079747;28;20637;-66
2023/10/21 03:20:06;;;;;;;2.83;0.82;;;;;;;21.73;60.05;97192.75;2069265;28;20050;-67
2023/10/21 03:21:07;;;;;;;3.38;0.90;;;;;;;;;;2070216;28;20056;-67
2023/10/21 03:22:09;;;;;;;2.42;0.80;;;;;;;21.70;60.22;97188.69;2072067;28;20045;-67
2023/10/21 03:23:11;;;;;;;1.42;0.45;;;;;;;21.71;60.16;97187.63;2075885;28;20060;-67
2023/10/21 03:24:12;;;;;;;5.63;1.55;;;;;;;21.71;60.24;97181.44;2074625;28;20049;-67
2023/10/21 03:25:13;;;;;;;2.60;0.95;;;;;;;21.71;59.90;97184.94;2071555;28;20056;-67
2023/10/21 03:26:15;;;;;;;3.72;1.20;;;;;;;21.71;60.25;97184.94;2071942;28;20122;-67
2023/10/21 03:27:18;;;;;;;8.15;0.82;;;;;;;21.73;59.87;97184.66;2072861;28;20057;-67
2023/10/21 03:28:19;;;;;;;4.90;0.77;;;;;;;21.75;60.05;97187.91;2072928;28;20471;-67
2023/10/21 03:29:20;;;;;;;8.50;1.35;;;;;;;21.76;59.78;97184.16;2076816;28;20067;-67
2023/10/21 03:30:22;;;;;;;2.92;0.77;;;;;;;21.73;59.99;97187.34;2074740;28;20086;-67
2023/10/21 03:31:23;;;;;;;4.35;0.90;;;;;;;21.71;59.95;97184.13;2074220;28;20073;-67
2023/10/21 03:32:26;;;;;;;2.35;1.08;;;;;;;21.71;60.12;97187.63;2074942;28;20049;-67
2023/10/21 03:33:27;;;;;;;2.50;0.82;;;;;;;21.68;60.24;97185.44;2073882;28;20106;-67
2023/10/21 03:34:29;;;;;;;4.72;0.85;;;;;;;21.67;60.40;97193.78;2073204;28;20057;-68
2023/10/21 03:35:31;;;;;;;4.95;1.25;;;;;;;21.70;60.09;97193.28;2072663;28;20057;-67
2023/10/21 03:36:33;;;;;;;11.68;1.42;;;;;;;21.71;60.34;97192.22;2072520;28;20212;-67
2023/10/21 03:37:34;;;;;;;2.60;0.77;;;;;;;21.67;60.12;97189.19;2072143;28;20045;-67
2023/10/21 03:38:36;;;;;;;2.55;0.50;;;;;;;21.67;60.29;97189.19;2075793;28;20136;-67
2023/10/21 03:39:37;;;;;;;2.38;0.68;;;;;;;21.68;60.08;97195.44;2074259;28;20519;-67
2023/10/21 03:40:39;;;;;;;2.42;0.70;;;;;;;21.70;60.15;97194.06;2075993;28;20080;-67
2023/10/21 03:41:40;;;;;;;1.77;0.68;;;;;;;21.69;60.27;97197.88;2070547;28;20071;-67
2023/10/21 03:42:43;;;;;;;2.22;0.73;;;;;;;21.66;60.21;97201.06;2075101;28;20041;-67
2023/10/21 03:43:44;;;;;;;5.40;1.10;;;;;;;21.65;60.42;97202.16;2078052;28;20068;-67
2023/10/21 03:44:46;;;;;;;3.88;0.88;;;;;;;21.68;60.28;97200.84;2076924;28;20036;-67
2023/10/21 03:45:47;;;;;;;9.10;0.98;;;;;;;21.66;60.36;97208.38;2073914;28;20053;-67
2023/10/21 03:46:49;;;;;;;2.58;0.90;;;;;;;21.66;60.20;97208.38;2076341;28;20054;-67
2023/10/21 03:47:49;;;;;;;3.28;0.80;;;;;;;21.70;60.10;97209.47;2074083;28;20557;-67
2023/10/21 03:48:51;;;;;;;1.02;0.40;;;;;;;21.71;60.26;97219.19;2074962;28;20172;-67
2023/10/21 03:49:52;;;;;;;3.70;0.57;;;;;;;21.67;60.27;97210.78;2070704;28;20064;-67
2023/10/21 03:51:02;;;;;;;2.55;0.90;;;;;;;21.67;60.15;97207.28;2071889;28;20054;-67
2023/10/21 03:52:03;;;;;;;2.65;0.70;;;;;;;21.65;60.42;97210.25;2074828;28;21815;-67
2023/10/21 03:53:05;;;;;;;4.95;0.70;;;;;;;21.66;60.32;97211.06;2074862;28;20056;-67
2023/10/21 03:54:06;;;;;;;4.75;0.82;;;;;;;21.67;60.57;97210.78;2077108;28;20048;-67
2023/10/21 03:55:09;;;;;;;4.20;0.93;;;;;;;21.70;60.22;97214.84;2070369;28;20055;-67
2023/10/21 03:56:10;;;;;;;1.38;0.80;;;;;;;21.70;60.26;97215.66;2075996;28;20571;-67
2023/10/21 03:57:12;;;;;;;5.32;0.82;;;;;;;21.71;60.12;97216.50;2073648;28;20054;-67
2023/10/21 03:58:15;;;;;;;7.05;1.40;;;;;;;21.71;60.05;97217.31;2074905;28;20041;-67
2023/10/21 03:59:17;;;;;;;7.03;0.75;;;;;;;21.70;59.98;97215.66;2074996;28;20081;-67
2023/10/21 04:00:18;;;;;;;1.75;0.40;;;;;;;21.70;60.20;97220.25;2076552;28;20062;-67
2023/10/21 04:01:21;;;;;;;4.07;0.88;;;;;;;21.68;60.01;97223.22;2073786;28;20065;-67
2023/10/21 04:02:21;;;;;;;1.42;0.70;;;;;;;21.69;60.17;97227.53;2071685;28;20143;-64
2023/10/21 04:03:23;;;;;;;1.73;0.70;;;;;;;21.73;59.83;97225.13;2076472;28;20456;-66
2023/10/21 04:04:25;;;;;;;4.35;0.68;;;;;;;21.70;60.26;97234.56;2077989;28;20045;-65
2023/10/21 04:05:26;;;;;;;4.72;0.93;;;;;;;21.69;60.41;97230.25;2075718;28;20053;-64
2023/10/21 04:06:28;;;;;;;2.70;0.90;;;;;;;21.68;60.12;97225.13;2076932;28;20063;-65
2023/10/21 04:07:29;;;;;;;3.10;0.57;;;;;;;21.69;60.27;97222.16;2071117;28;20180;-65
2023/10/21 04:08:31;;;;;;;6.95;1.15;;;;;;;21.71;60.16;97230.00;2073957;28;20212;-65
2023/10/21 04:09:32;;;;;;;3.92;0.38;;;;;;;21.71;59.93;97232.69;2073174;28;20044;-66
2023/10/21 04:10:34;;;;;;;2.38;0.80;;;;;;;21.69;60.47;97226.72;2076942;28;20052;-65
2023/10/21 04:11:35;;;;;;;6.25;1.10;;;;;;;21.70;60.25;97225.66;2076935;28;20738;-64
2023/10/21 04:12:39;;;;;;;3.92;0.68;;;;;;;21.67;60.38;97224.28;2075957;28;20045;-65
2023/10/21 04:13:42;;;;;;;2.92;0.90;;;;;;;21.69;60.16;97221.34;2078761;28;20144;-64
2023/10/21 04:14:43;;;;;;;4.18;0.90;;;;;;;21.69;60.33;97222.16;2070537;28;20443;-66
2023/10/21 04:15:45;;;;;;;3.97;0.80;;;;;;;21.66;60.42;97227.25;2067476;28;20556;-64
2023/10/21 04:16:46;;;;;;;3.58;0.63;;;;;;;21.66;60.44;97229.94;2073613;28;20048;-64
2023/10/21 04:17:47;;;;;;;3.80;0.90;;;;;;;21.67;59.97;97231.56;2076906;28;20044;-64
2023/10/21 04:18:49;;;;;;;3.15;0.80;;;;;;;21.66;60.52;97232.66;2076358;28;20096;-64
2023/10/21 04:19:51;;;;;;;1.30;0.55;;;;;;;21.63;60.45;97226.69;2071844;28;20053;-65
2023/10/21 04:20:54;;;;;;;1.90;0.65;;;;;;;21.65;60.35;97237.25;2073125;28;20135;-66
2023/10/21 04:21:55;;;;;;;4.00;0.68;;;;;;;21.70;60.37;97228.34;2071535;28;20126;-65
2023/10/21 04:22:56;;;;;;;1.77;0.60;;;;;;;21.71;60.13;97227.31;2072484;28;20470;-65
2023/10/21 04:23:58;;;;;;;2.17;0.60;;;;;;;21.67;60.24;97221.59;2072820;28;20141;-65
2023/10/21 04:25:01;;;;;;;3.35;0.60;;;;;;;21.71;60.34;97221.91;2071384;28;20156;-65
2023/10/21 04:26:04;;;;;;;2.88;0.43;;;;;;;;;;2071813;28;20048;-65
2023/10/21 04:27:05;;;;;;;2.50;1.02;;;;;;;21.71;60.08;97224.59;2076711;28;20058;-66
2023/10/21 04:28:07;;;;;;;1.02;0.50;;;;;;;21.71;60.22;97219.19;2076992;28;20419;-66
2023/10/21 04:29:09;;;;;;;2.20;1.00;;;;;;;21.73;60.19;97230.53;2079605;28;20059;-65
2023/10/21 04:30:13;;;;;;;2.17;0.82;;;;;;;21.72;60.08;97223.53;2074813;28;20598;-65
2023/10/21 04:31:13;;;;;;;2.45;1.10;;;;;;;21.70;60.01;97221.06;2076007;28;20085;-65
2023/10/21 04:32:15;;;;;;;2.45;0.60;;;;;;;21.68;60.00;97217.03;2079335;28;20507;-66
2023/10/21 04:33:16;;;;;;;1.90;0.50;;;;;;;21.66;60.18;97219.97;2075794;28;20053;-65
2023/10/21 04:34:17;;;;;;;2.95;0.82;;;;;;;21.64;60.38;97222.91;2078755;28;20152;-66
2023/10/21 04:35:19;;;;;;;;;;;;;;;21.53;60.43;97231.97;2075555;28;21353;-65
2023/10/21 04:36:20;;;;;;;3.97;0.50;;;;;;;21.59;60.35;97228.28;2074123;28;19936;-65
2023/10/21 04:37:21;;;;;;;3.75;1.05;;;;;;;21.61;60.43;97230.72;2074161;28;21142;-65
2023/10/21 04:38:22;;;;;;;2.05;0.88;;;;;;;21.67;60.15;97235.06;2069413;28;20046;-65
2023/10/21 04:39:24;;;;;;;2.22;0.60;;;;;;;21.66;60.12;97227.25;2077360;28;20041;-66
2023/10/21 04:40:25;;;;;;;2.30;0.60;;;;;;;21.67;60.33;97228.88;2075431;28;20041;-65
2023/10/21 04:41:27;;;;;;;1.85;0.73;;;;;;;21.71;59.93;97235.41;2077342;28;20505;-65
2023/10/21 04:42:29;;;;;;;2.28;0.70;;;;;;;21.70;60.07;97231.06;2074773;28;20052;-65
2023/10/21 04:43:30;;;;;;;2.20;0.70;;;;;;;21.70;59.94;97231.06;2076068;28;20053;-64
2023/10/21 04:44:33;;;;;;;1.88;0.63;;;;;;;21.70;59.99;97225.66;2074281;28;20049;-65
2023/10/21 04:45:34;;;;;;;0.95;0.45;;;;;;;21.70;60.21;97237.25;2077144;28;20053;-66
2023/10/21 04:46:35;;;;;;;2.65;0.70;;;;;;;21.71;60.26;97232.69;2074048;28;20432;-63
2023/10/21 04:47:37;;;;;;;2.42;1.23;;;;;;;21.71;60.17;97232.69;2076087;28;20055;-66
2023/10/21 04:48:38;;;;;;;6.65;1.05;;;;;;;21.71;60.03;97227.31;2076673;28;20060;-65
2023/10/21 04:49:42;;;;;;;4.55;0.77;;;;;;;;;;2077156;28;20141;-66
2023/10/21 04:50:43;;;;;;;4.30;1.55;;;;;;;21.71;60.09;97232.69;2074293;28;20079;-65
2023/10/21 04:51:45;;;;;;;3.95;0.73;;;;;;;21.72;60.02;97234.31;2074681;28;20149;-64